Weather at Prime Parks Shinagawa Seaside Tower Helipad

Public forecast

Using degrees Celsius for public forecast. Weather courtesy of forecast.io.

Closest aviation weather report (METAR) to Prime Parks Shinagawa Seaside Tower Helipad

Closest report is Tokyo Haneda International Airport, 3.7 nm (6.8 km) SSE.

2024/07/12 23:30 (retrieved 16 minutes ago)

RJTT 122330Z 18004KT 120V260 9999 FEW015 BKN/// 28/23 Q1008 NOSIG

Closest aviation forecast (TAF) to Prime Parks Shinagawa Seaside Tower Helipad

Closest forecast is Tokyo Haneda International Airport, 3.7 nm (6.8 km) SSE.

2024/07/12 18:28 (retrieved 5 hours ago)

TAF RJTT 121705Z 1218/1400 34006KT 9999 FEW015 SCT060 BECMG 1221/1223 17005KT BECMG 1304/1306 18015KT TEMPO 1318/1400 4000 SHRA BR FEW005 BKN008